Time;durP1;ratioP1;P1;durP2;ratioP2;P2;SDS_P1;SDS_P2;PMS_P1;PMS_P2;Temp;Humidity;BMP_temperature;BMP_pressure;BME280_temperature;BME280_humidity;BME280_pressure;Samples;Min_cycle;Max_cycle;Signal;HPM_P1;HPM_P2
2023/04/26 00:01:31;;;;;;;31.10;16.00;;;;;;;8.75;100.00;100356.11;107552;1279;59022;-79
2023/04/26 00:03:56;;;;;;;31.70;15.20;;;;;;;8.72;100.00;100357.54;107480;1278;59062;-80
2023/04/26 00:06:22;;;;;;;35.40;15.60;;;;;;;8.72;100.00;100356.95;107496;1279;59097;-80
2023/04/26 00:08:47;;;;;;;29.10;15.60;;;;;;;8.73;100.00;100362.02;107476;1278;59080;-80
2023/04/26 00:11:13;;;;;;;27.80;14.70;;;;;;;8.72;100.00;100361.20;107495;1278;59266;-80
2023/04/26 00:13:38;;;;;;;30.20;14.90;;;;;;;8.68;100.00;100363.36;107044;1280;59157;-80
2023/04/26 00:16:04;;;;;;;27.00;14.80;;;;;;;8.63;100.00;100366.30;107557;1279;74364;-80
2023/04/26 00:18:30;;;;;;;28.80;14.10;;;;;;;8.60;100.00;100365.80;107316;1280;59424;-80
2023/04/26 00:20:56;;;;;;;31.70;16.60;;;;;;;8.56;100.00;100365.90;107478;1278;59072;-80
2023/04/26 00:23:22;;;;;;;36.30;17.20;;;;;;;8.55;100.00;100362.95;106994;1280;59140;-80
2023/04/26 00:25:47;;;;;;;32.30;16.40;;;;;;;8.60;100.00;100362.45;107493;1278;59406;-80
2023/04/26 00:28:13;;;;;;;32.30;16.40;;;;;;;8.59;100.00;100363.05;107519;1279;59909;-80
2023/04/26 00:30:46;;;;;;;31.70;16.30;;;;;;;8.59;100.00;100363.73;107440;1279;61827;-80
2023/04/26 00:33:11;;;;;;;38.40;17.60;;;;;;;8.61;100.00;100366.27;107471;1279;62345;-80
2023/04/26 00:35:37;;;;;;;34.80;17.00;;;;;;;8.59;100.00;100369.98;107457;1279;59057;-80
2023/04/26 00:38:02;;;;;;;31.40;16.50;;;;;;;8.57;100.00;100370.38;107491;1279;59100;-79
2023/04/26 00:40:29;;;;;;;34.40;16.60;;;;;;;8.55;100.00;100369.34;107475;1279;59051;-79
2023/04/26 00:42:58;;;;;;;34.80;16.30;;;;;;;8.51;100.00;100372.98;107318;1278;59287;-80
2023/04/26 00:45:24;;;;;;;36.20;18.80;;;;;;;8.48;100.00;100376.63;107465;1279;59141;-79
2023/04/26 00:47:50;;;;;;;29.10;15.90;;;;;;;8.45;100.00;100378.25;107475;1279;59127;-80
2023/04/26 00:50:15;;;;;;;40.60;19.10;;;;;;;8.41;100.00;100380.05;107479;1279;60009;-80
2023/04/26 00:52:42;;;;;;;31.20;16.80;;;;;;;8.40;100.00;100381.80;107435;1279;59409;-80
2023/04/26 00:55:08;;;;;;;33.20;16.40;;;;;;;8.38;100.00;100384.38;107510;1278;59062;-77
2023/04/26 00:57:33;;;;;;;36.80;15.50;;;;;;;8.36;100.00;100381.92;107516;1279;59050;-80
2023/04/26 00:59:59;;;;;;;31.30;15.50;;;;;;;8.37;100.00;100380.10;107209;1279;59218;-80
2023/04/26 01:02:25;;;;;;;37.30;17.60;;;;;;;8.38;100.00;100380.41;107461;1279;73737;-80
2023/04/26 01:04:51;;;;;;;33.40;17.60;;;;;;;8.35;100.00;100391.10;107440;1279;59018;-80
2023/04/26 01:07:17;;;;;;;44.90;20.40;;;;;;;8.30;100.00;100389.91;107456;1279;59528;-80
2023/04/26 01:09:43;;;;;;;39.60;18.90;;;;;;;8.30;100.00;100390.30;107522;1278;59109;-80
2023/04/26 01:12:10;;;;;;;33.20;17.40;;;;;;;8.29;100.00;100392.30;107470;1279;59048;-80
2023/04/26 01:14:36;;;;;;;44.70;19.30;;;;;;;8.25;100.00;100390.33;107457;1279;59054;-80
2023/04/26 01:17:02;;;;;;;44.80;18.70;;;;;;;8.25;100.00;100386.67;107467;1279;59425;-80
2023/04/26 01:19:28;;;;;;;46.20;21.00;;;;;;;8.23;100.00;100394.87;107470;1279;59356;-80
2023/04/26 01:21:53;;;;;;;45.80;20.60;;;;;;;8.18;100.00;100392.10;107467;1279;59073;-80
2023/04/26 01:24:19;;;;;;;40.10;20.00;;;;;;;8.09;100.00;100391.30;107488;1279;59137;-81
2023/04/26 01:26:46;;;;;;;43.00;20.00;;;;;;;8.15;100.00;100391.48;107495;1279;59081;-80
2023/04/26 01:29:15;;;;;;;47.30;21.50;;;;;;;8.14;100.00;100394.86;107218;1279;59193;-80
2023/04/26 01:31:40;;;;;;;47.70;20.80;;;;;;;8.15;100.00;100390.84;107493;1279;75305;-80
2023/04/26 01:34:06;;;;;;;38.20;18.00;;;;;;;8.16;100.00;100392.63;107487;1278;59054;-80
2023/04/26 01:36:31;;;;;;;43.60;18.90;;;;;;;8.19;100.00;100391.90;107470;1279;59069;-79
2023/04/26 01:38:57;;;;;;;37.50;17.40;;;;;;;8.18;100.00;100395.07;107497;1279;59042;-80
2023/04/26 01:41:23;;;;;;;34.60;17.40;;;;;;;8.18;100.00;100398.98;107539;1279;59384;-80
2023/04/26 01:43:49;;;;;;;41.80;17.90;;;;;;;8.19;100.00;100401.36;107501;1279;74702;-80
2023/04/26 01:46:15;;;;;;;30.00;15.40;;;;;;;8.18;100.00;100400.10;107473;1279;59060;-80
2023/04/26 01:48:40;;;;;;;31.40;14.70;;;;;;;8.12;100.00;100403.84;107452;1279;58970;-80
2023/04/26 01:51:06;;;;;;;30.90;14.70;;;;;;;8.08;100.00;100397.94;107476;1279;59129;-80
2023/04/26 01:53:31;;;;;;;27.40;14.50;;;;;;;8.06;100.00;100398.83;107502;1278;59304;-81
2023/04/26 01:56:01;;;;;;;27.30;15.00;;;;;;;8.05;100.00;100391.98;107532;1278;59121;-80
2023/04/26 01:58:27;;;;;;;30.20;14.60;;;;;;;8.03;100.00;100397.34;107475;1279;61893;-81
2023/04/26 02:00:52;;;;;;;31.80;15.40;;;;;;;8.00;100.00;100394.50;107463;1278;58957;-81
2023/04/26 02:03:18;;;;;;;30.10;14.20;;;;;;;7.94;100.00;100391.20;107469;1279;59055;-80
2023/04/26 02:05:43;;;;;;;26.70;14.10;;;;;;;7.90;100.00;100395.50;107492;1279;59323;-80
2023/04/26 02:08:09;;;;;;;26.40;13.10;;;;;;;7.88;100.00;100395.84;107487;1279;59223;-81
2023/04/26 02:10:35;;;;;;;29.30;13.80;;;;;;;7.82;100.00;100393.19;107463;1279;60108;-80
2023/04/26 02:13:00;;;;;;;28.50;12.60;;;;;;;7.78;100.00;100396.81;107484;1279;58930;-80
2023/04/26 02:15:26;;;;;;;23.70;13.20;;;;;;;7.71;100.00;100401.55;107453;1279;59110;-80
2023/04/26 02:17:52;;;;;;;28.10;14.00;;;;;;;7.67;100.00;100400.99;107012;1278;59210;-80
2023/04/26 02:20:18;;;;;;;34.30;14.40;;;;;;;7.64;100.00;100398.02;107452;1278;59092;-80
2023/04/26 02:22:44;;;;;;;29.20;13.40;;;;;;;7.65;100.00;100396.96;107495;1279;59115;-81
2023/04/26 02:25:10;;;;;;;24.60;14.00;;;;;;;7.69;100.00;100399.64;107540;1278;59140;-81
2023/04/26 02:27:36;;;;;;;25.20;12.30;;;;;;;7.71;100.00;100399.99;107441;1279;73158;-81
2023/04/26 02:30:02;;;;;;;26.80;12.90;;;;;;;7.71;100.00;100399.73;107446;1279;59065;-80
2023/04/26 02:32:28;;;;;;;29.10;13.00;;;;;;;7.72;100.00;100402.73;107504;1279;58989;-80
2023/04/26 02:34:53;;;;;;;28.90;12.00;;;;;;;7.75;100.00;100408.10;107008;1280;59561;-80
2023/04/26 02:37:20;;;;;;;24.70;13.00;;;;;;;7.79;100.00;100406.44;107532;1279;59110;-80
2023/04/26 02:39:50;;;;;;;27.40;13.20;;;;;;;7.81;100.00;100409.58;106671;1278;59085;-81
2023/04/26 02:42:16;;;;;;;32.00;12.70;;;;;;;7.85;100.00;100410.70;106996;1279;61906;-80
2023/04/26 02:44:41;;;;;;;30.10;13.10;;;;;;;7.88;100.00;100410.86;107523;1279;59063;-80
2023/04/26 02:47:08;;;;;;;27.30;13.60;;;;;;;7.96;100.00;100409.59;107508;1279;58959;-81
2023/04/26 02:49:33;;;;;;;28.10;13.50;;;;;;;8.03;100.00;100408.45;107346;1279;59408;-80
2023/04/26 02:51:59;;;;;;;30.90;13.40;;;;;;;8.14;100.00;100410.00;107468;1278;59450;-81
2023/04/26 02:54:25;;;;;;;27.90;14.40;;;;;;;8.28;100.00;100406.30;107167;1279;59404;-80
2023/04/26 02:56:50;;;;;;;25.10;12.20;;;;;;;8.38;100.00;100407.42;107532;1279;59424;-81
2023/04/26 02:59:16;;;;;;;24.10;12.10;;;;;;;8.52;100.00;100409.75;107472;1278;59104;-81
2023/04/26 03:01:41;;;;;;;22.30;11.70;;;;;;;8.69;100.00;100409.83;107505;1278;59374;-81
2023/04/26 03:04:07;;;;;;;27.90;12.30;;;;;;;8.84;100.00;100412.36;107478;1278;58997;-81
2023/04/26 03:06:32;;;;;;;23.40;13.10;;;;;;;9.06;100.00;100411.30;107502;1279;59015;-80
2023/04/26 03:08:58;;;;;;;31.20;13.20;;;;;;;9.33;100.00;100417.84;107576;1278;59411;-81
2023/04/26 03:11:23;;;;;;;29.60;13.40;;;;;;;9.57;100.00;100418.84;107332;1280;59046;-81
2023/04/26 03:13:49;;;;;;;31.10;14.00;;;;;;;9.83;100.00;100419.41;107495;1278;59004;-82
2023/04/26 03:16:15;;;;;;;24.60;13.10;;;;;;;10.10;100.00;100419.85;107515;1279;59063;-80
2023/04/26 03:18:40;;;;;;;27.90;13.60;;;;;;;10.36;100.00;100416.71;107505;1279;58981;-81
2023/04/26 03:21:06;;;;;;;24.60;12.90;;;;;;;10.60;100.00;100414.98;107553;1279;59242;-82
2023/04/26 03:23:31;;;;;;;27.50;13.60;;;;;;;10.84;100.00;100413.92;107067;1280;61307;-81
2023/04/26 03:25:57;;;;;;;30.40;13.70;;;;;;;11.04;100.00;100415.84;107506;1278;59079;-81
2023/04/26 03:28:23;;;;;;;28.20;13.10;;;;;;;11.21;100.00;100415.17;107526;1279;59048;-81
2023/04/26 03:30:49;;;;;;;27.50;12.80;;;;;;;11.41;100.00;100415.34;107476;1278;59170;-82
2023/04/26 03:33:15;;;;;;;34.80;13.70;;;;;;;11.56;100.00;100413.56;107454;1278;59044;-81
2023/04/26 03:35:42;;;;;;;28.40;12.30;;;;;;;11.74;100.00;100417.34;107489;1278;59235;-82
2023/04/26 03:38:07;;;;;;;33.00;12.40;;;;;;;11.96;100.00;100416.20;107521;1278;59131;-82
2023/04/26 03:40:33;;;;;;;33.50;12.30;;;;;;;12.17;100.00;100420.69;107559;1278;59066;-81
2023/04/26 03:42:58;;;;;;;33.60;13.00;;;;;;;12.34;100.00;100425.06;107450;1279;72355;-82
2023/04/26 03:45:25;;;;;;;23.70;11.80;;;;;;;12.63;100.00;100423.43;107462;1279;59079;-82
2023/04/26 03:47:51;;;;;;;25.50;10.50;;;;;;;12.98;100.00;100427.52;107366;1279;59065;-82
2023/04/26 03:50:16;;;;;;;35.10;10.60;;;;;;;13.58;100.00;100428.20;107433;1278;58993;-82
2023/04/26 03:52:42;;;;;;;27.60;10.10;;;;;;;14.62;100.00;100429.27;107090;1279;59180;-82
2023/04/26 03:55:09;;;;;;;30.90;11.90;;;;;;;15.48;100.00;100425.72;107393;1279;59280;-82
2023/04/26 03:57:35;;;;;;;29.70;11.70;;;;;;;16.20;100.00;100421.75;107186;1278;60823;-80
2023/04/26 04:00:00;;;;;;;35.30;12.70;;;;;;;17.13;100.00;100425.14;107511;1279;59184;-80
2023/04/26 04:02:26;;;;;;;25.90;12.60;;;;;;;18.07;100.00;100424.79;107529;1279;59106;-80
2023/04/26 04:04:52;;;;;;;27.50;12.30;;;;;;;18.96;100.00;100427.08;107531;1278;59125;-80
2023/04/26 04:07:18;;;;;;;31.20;13.60;;;;;;;19.81;100.00;100429.84;107524;1278;58915;-80
2023/04/26 04:09:43;;;;;;;27.40;11.00;;;;;;;20.58;100.00;100431.90;107564;1278;59094;-80
2023/04/26 04:12:09;;;;;;;30.20;11.70;;;;;;;21.26;96.39;100433.95;107568;1279;59131;-81
2023/04/26 04:14:34;;;;;;;26.30;10.70;;;;;;;21.64;91.09;100439.71;107498;1279;59084;-81
2023/04/26 04:17:00;;;;;;;30.10;10.80;;;;;;;22.51;87.48;100439.09;107500;1278;58990;-82
2023/04/26 04:19:25;;;;;;;28.20;11.30;;;;;;;23.22;80.71;100437.40;107492;1278;59045;-81
2023/04/26 04:21:51;;;;;;;24.30;10.80;;;;;;;23.91;77.80;100440.26;107505;1278;59110;-81
2023/04/26 04:24:16;;;;;;;27.70;10.90;;;;;;;24.56;74.06;100441.88;107549;1278;59314;-81
2023/04/26 04:26:42;;;;;;;27.70;11.20;;;;;;;25.29;71.27;100432.20;107063;1278;59105;-81
2023/04/26 04:29:07;;;;;;;28.20;11.00;;;;;;;26.16;67.91;100429.40;107500;1278;59105;-81
2023/04/26 04:31:37;;;;;;;29.30;11.20;;;;;;;26.74;62.52;100424.06;107080;1278;59112;-81
2023/04/26 04:34:03;;;;;;;30.00;11.80;;;;;;;27.22;59.06;100423.20;107481;1279;73270;-82
2023/04/26 04:36:28;;;;;;;33.30;12.10;;;;;;;27.80;56.26;100420.38;107499;1278;59107;-81
2023/04/26 04:38:54;;;;;;;32.00;12.40;;;;;;;28.17;53.19;100418.65;107528;1278;59407;-81
2023/04/26 04:41:21;;;;;;;31.70;11.80;;;;;;;28.26;51.93;100418.08;107521;1278;59523;-82
2023/04/26 04:43:46;;;;;;;32.50;12.60;;;;;;;28.82;51.24;100421.64;107482;1279;59046;-82
2023/04/26 04:46:12;;;;;;;30.90;13.60;;;;;;;29.16;48.81;100417.70;107080;1279;59205;-82
2023/04/26 04:48:37;;;;;;;32.00;13.10;;;;;;;29.14;48.46;100411.10;107501;1278;59069;-81
2023/04/26 04:51:03;;;;;;;35.70;14.90;;;;;;;29.14;47.94;100411.33;107156;1279;59053;-81
2023/04/26 04:53:29;;;;;;;39.30;15.70;;;;;;;29.86;46.70;100410.88;107492;1279;59192;-82
2023/04/26 04:55:55;;;;;;;41.90;14.60;;;;;;;30.46;44.05;100410.64;107350;1279;59145;-82
2023/04/26 04:58:21;;;;;;;33.20;13.50;;;;;;;30.33;44.01;100417.81;107445;1279;59105;-81
2023/04/26 05:00:47;;;;;;;34.80;12.70;;;;;;;30.30;42.86;100415.89;107450;1278;59385;-82
2023/04/26 05:03:13;;;;;;;37.90;12.60;;;;;;;30.78;42.77;100421.22;107499;1279;59375;-82
2023/04/26 05:05:39;;;;;;;35.70;13.30;;;;;;;31.16;41.24;100419.27;107483;1279;59184;-81
2023/04/26 05:08:08;;;;;;;34.10;12.80;;;;;;;30.99;41.28;100420.67;107510;1279;59137;-82
2023/04/26 05:10:34;;;;;;;33.00;12.60;;;;;;;31.15;40.05;100417.05;107448;1279;61337;-82
2023/04/26 05:13:00;;;;;;;33.40;12.60;;;;;;;31.03;39.55;100418.60;107033;1279;58997;-81
2023/04/26 05:15:26;;;;;;;32.70;12.60;;;;;;;31.09;39.06;100419.06;107498;1279;59169;-82
2023/04/26 05:17:51;;;;;;;29.10;12.00;;;;;;;31.22;37.94;100426.95;107520;1279;59463;-82
2023/04/26 05:20:17;;;;;;;32.40;12.40;;;;;;;30.64;37.74;100425.77;107524;1278;59118;-82
2023/04/26 05:22:42;;;;;;;31.80;13.30;;;;;;;30.08;39.18;100430.98;107102;1278;59194;-82
2023/04/26 05:25:09;;;;;;;29.80;11.90;;;;;;;30.41;38.98;100428.92;107566;1279;75570;-82
2023/04/26 05:27:36;;;;;;;31.90;12.20;;;;;;;30.96;39.49;100427.20;107570;1279;74324;-81
2023/04/26 05:30:03;;;;;;;29.10;11.80;;;;;;;31.54;37.70;100421.07;107571;1278;73707;-82
2023/04/26 05:32:29;;;;;;;29.50;11.80;;;;;;;31.26;38.54;100425.66;107544;1278;60130;-83
2023/04/26 05:34:54;;;;;;;27.70;11.60;;;;;;;31.52;39.83;100426.26;107593;1279;59082;-82
2023/04/26 05:37:20;;;;;;;27.20;11.40;;;;;;;32.09;40.72;100426.34;107398;1280;59178;-82
2023/04/26 05:39:46;;;;;;;26.70;11.30;;;;;;;32.39;39.64;100425.14;107489;1279;59092;-82
2023/04/26 05:42:11;;;;;;;21.50;9.60;;;;;;;32.39;38.10;100424.34;107480;1278;59409;-82
2023/04/26 05:44:37;;;;;;;25.20;10.00;;;;;;;32.32;37.38;100423.84;107478;1279;61165;-82
2023/04/26 05:47:02;;;;;;;19.60;10.10;;;;;;;33.01;36.32;100422.40;107128;1278;59205;-82
2023/04/26 05:49:28;;;;;;;16.20;7.90;;;;;;;33.30;34.57;100420.61;107523;1278;59076;-82
2023/04/26 05:51:53;;;;;;;13.30;7.10;;;;;;;33.11;33.74;100414.48;107452;1279;59047;-82
2023/04/26 05:54:19;;;;;;;19.10;7.90;;;;;;;32.94;32.50;100412.52;107563;1279;59446;-84
2023/04/26 05:56:44;;;;;;;18.30;8.10;;;;;;;32.05;33.77;100411.24;107509;1279;74355;-84
2023/04/26 05:59:12;;;;;;;19.70;8.20;;;;;;;31.83;35.51;100415.23;107356;1278;59092;-84
2023/04/26 06:01:38;;;;;;;19.20;8.10;;;;;;;32.14;34.94;100411.00;107502;1278;73411;-85
2023/04/26 06:04:04;;;;;;;18.70;8.60;;;;;;;32.29;34.69;100411.81;106937;1283;59176;-85
2023/04/26 06:06:30;;;;;;;17.30;8.00;;;;;;;32.41;34.86;100410.69;106929;1285;59677;-84
2023/04/26 06:08:56;;;;;;;17.30;7.80;;;;;;;32.19;33.92;100410.82;106485;1285;59155;-84
2023/04/26 06:11:22;;;;;;;17.60;7.40;;;;;;;31.80;35.34;100412.94;106910;1283;59154;-85
2023/04/26 06:13:47;;;;;;;12.30;6.60;;;;;;;31.91;34.78;100411.59;106921;1283;59104;-85
2023/04/26 06:16:13;;;;;;;11.00;4.60;;;;;;;32.07;35.06;100408.52;106962;1285;59069;-85
2023/04/26 06:18:38;;;;;;;13.30;5.20;;;;;;;32.80;33.69;100418.88;106700;1284;75401;-84
2023/04/26 06:21:07;;;;;;;9.50;5.00;;;;;;;33.79;33.33;100415.35;106953;1283;60088;-84
2023/04/26 06:23:33;;;;;;;7.40;4.00;;;;;;;34.05;30.83;100414.71;106858;1284;72355;-84
2023/04/26 06:25:59;;;;;;;8.80;4.50;;;;;;;33.69;31.52;100416.40;106766;1285;59207;-83
2023/04/26 06:28:27;;;;;;;10.60;5.10;;;;;;;33.56;31.53;100419.46;106453;1285;59134;-84
2023/04/26 06:30:53;;;;;;;11.30;4.60;;;;;;;33.89;31.55;100418.55;106780;1285;74393;-84
2023/04/26 06:33:18;;;;;;;8.80;3.80;;;;;;;34.23;31.42;100412.72;106383;1285;59234;-83
2023/04/26 06:35:45;;;;;;;10.50;4.30;;;;;;;34.39;29.18;100411.89;106772;1285;59144;-84
2023/04/26 06:38:11;;;;;;;6.00;3.90;;;;;;;33.54;29.76;100413.89;106774;1285;59065;-84
2023/04/26 06:40:37;;;;;;;8.90;4.10;;;;;;;33.86;29.71;100414.53;106775;1285;59073;-84
2023/04/26 06:43:03;;;;;;;7.50;4.10;;;;;;;34.37;30.38;100405.36;107154;1282;59150;-85
2023/04/26 06:45:29;;;;;;;11.80;4.70;;;;;;;34.95;29.10;100412.65;107191;1282;59207;-83
2023/04/26 06:47:56;;;;;;;7.20;3.70;;;;;;;34.76;28.45;100413.35;107176;1282;59133;-84
2023/04/26 06:50:21;;;;;;;9.60;4.20;;;;;;;34.83;28.86;100414.88;107141;1282;59249;-84
2023/04/26 06:52:47;;;;;;;8.20;4.10;;;;;;;34.65;28.58;100413.83;107199;1281;59117;-83
2023/04/26 06:55:12;;;;;;;7.60;4.20;;;;;;;35.10;28.84;100415.79;106805;1281;59620;-82
2023/04/26 06:57:38;;;;;;;9.70;4.30;;;;;;;34.88;28.15;100423.27;107303;1279;59178;-82
2023/04/26 07:00:04;;;;;;;10.80;4.20;;;;;;;34.99;29.30;100423.36;107349;1279;59396;-83
2023/04/26 07:02:30;;;;;;;8.20;4.00;;;;;;;35.82;27.94;100423.01;107407;1279;59154;-84
2023/04/26 07:04:56;;;;;;;11.50;4.00;;;;;;;35.35;28.22;100422.38;107552;1279;59117;-83
2023/04/26 07:07:22;;;;;;;10.20;4.20;;;;;;;35.72;27.26;100423.39;107120;1282;59103;-83
2023/04/26 07:09:48;;;;;;;8.00;3.90;;;;;;;34.61;28.42;100426.52;107028;1282;60098;-83
2023/04/26 07:12:13;;;;;;;6.80;4.00;;;;;;;34.94;28.93;100423.24;107069;1282;59152;-83
2023/04/26 07:14:40;;;;;;;10.00;4.50;;;;;;;34.94;28.04;100425.54;107057;1282;59043;-83
2023/04/26 07:17:09;;;;;;;9.70;4.40;;;;;;;34.33;29.22;100426.61;107031;1282;59440;-83
2023/04/26 07:19:35;;;;;;;7.00;4.10;;;;;;;34.37;28.64;100425.42;106605;1285;73553;-83
2023/04/26 07:22:01;;;;;;;6.40;3.30;;;;;;;34.25;29.39;100430.13;107048;1282;59119;-82
2023/04/26 07:24:26;;;;;;;9.70;3.50;;;;;;;35.02;27.52;100425.22;107045;1282;59130;-82
2023/04/26 07:26:52;;;;;;;6.80;3.10;;;;;;;36.10;27.01;100426.78;106989;1282;59152;-83
2023/04/26 07:29:18;;;;;;;4.20;3.10;;;;;;;36.82;24.68;100425.38;107068;1282;59331;-83
2023/04/26 07:31:44;;;;;;;9.60;3.40;;;;;;;37.34;24.39;100429.33;107067;1282;59080;-83
2023/04/26 07:34:09;;;;;;;7.10;2.60;;;;;;;37.73;24.00;100428.06;107070;1282;59895;-81
2023/04/26 07:36:35;;;;;;;3.20;2.50;;;;;;;37.71;23.41;100429.88;107087;1282;59309;-80
2023/04/26 07:39:02;;;;;;;4.30;3.00;;;;;;;37.48;23.71;100428.98;107338;1278;59049;-81
2023/04/26 07:41:29;;;;;;;7.40;2.70;;;;;;;37.70;23.68;100427.12;107070;1280;72616;-80
2023/04/26 07:43:55;;;;;;;5.20;2.60;;;;;;;37.14;23.35;100428.90;107523;1279;59396;-80
2023/04/26 07:46:20;;;;;;;5.60;2.60;;;;;;;36.94;23.34;100428.50;107056;1282;59155;-82
2023/04/26 07:48:46;;;;;;;3.80;2.40;;;;;;;36.99;23.36;100427.71;107061;1282;58981;-82
2023/04/26 07:51:12;;;;;;;7.00;2.70;;;;;;;36.85;23.39;100434.13;107096;1282;59143;-81
2023/04/26 07:53:39;;;;;;;5.80;3.10;;;;;;;37.04;23.87;100425.41;106644;1282;61046;-80
2023/04/26 07:56:09;;;;;;;5.70;2.90;;;;;;;37.10;23.83;100431.42;107049;1282;60963;-81
2023/04/26 07:58:36;;;;;;;5.70;2.20;;;;;;;37.13;23.80;100427.57;107027;1282;75516;-80
2023/04/26 08:01:03;;;;;;;7.40;2.90;;;;;;;37.28;23.66;100431.67;107039;1282;74274;-80
2023/04/26 08:03:31;;;;;;;9.70;3.00;;;;;;;37.36;23.88;100436.27;107008;1282;73889;-80
2023/04/26 08:06:00;;;;;;;6.20;2.50;;;;;;;37.58;23.13;100438.90;107050;1282;60496;-79
2023/04/26 08:08:27;;;;;;;6.20;2.60;;;;;;;37.51;23.19;100438.55;107044;1282;60212;-81
2023/04/26 08:10:53;;;;;;;8.90;3.00;;;;;;;37.46;23.87;100439.02;107047;1282;59120;-81
2023/04/26 08:13:19;;;;;;;10.70;3.00;;;;;;;37.20;23.51;100442.11;107036;1282;59435;-81
2023/04/26 08:15:45;;;;;;;5.30;3.60;;;;;;;36.79;24.36;100439.59;107014;1282;59442;-81
2023/04/26 08:18:10;;;;;;;4.00;2.40;;;;;;;36.41;24.90;100444.61;107249;1279;59110;-80
2023/04/26 08:20:36;;;;;;;9.40;2.40;;;;;;;36.60;24.62;100443.10;107246;1279;59138;-81
2023/04/26 08:23:02;;;;;;;4.90;2.50;;;;;;;36.80;24.59;100441.83;107346;1279;59095;-81
2023/04/26 08:25:28;;;;;;;6.30;2.50;;;;;;;36.86;23.44;100441.95;107125;1278;59301;-80
2023/04/26 08:27:54;;;;;;;5.00;2.20;;;;;;;36.73;24.33;100439.35;107460;1278;61139;-81
2023/04/26 08:30:20;;;;;;;3.80;2.00;;;;;;;36.34;24.10;100437.67;107514;1279;59089;-80
2023/04/26 08:32:46;;;;;;;5.90;1.90;;;;;;;36.09;24.61;100441.93;107490;1279;59132;-81
2023/04/26 08:35:12;;;;;;;5.20;1.90;;;;;;;36.08;24.70;100438.56;107451;1278;59558;-80
2023/04/26 08:37:38;;;;;;;4.00;2.00;;;;;;;36.08;25.01;100439.77;107508;1278;58977;-80
2023/04/26 08:40:09;;;;;;;7.40;2.60;;;;;;;36.31;25.42;100438.71;107218;1278;59104;-80
2023/04/26 08:42:40;;;;;;;5.60;2.10;;;;;;;36.49;25.65;100437.67;107513;1279;60511;-80
2023/04/26 08:45:10;;;;;;;3.50;2.20;;;;;;;36.45;24.76;100444.67;107469;1279;75458;-80
2023/04/26 08:47:51;;;;;;;5.20;2.10;;;;;;;36.10;25.05;100436.83;106997;1280;73673;-80
2023/04/26 08:50:22;;;;;;;6.20;2.20;;;;;;;35.75;25.83;100439.91;107065;1279;72525;-80
2023/04/26 08:52:50;;;;;;;3.30;2.40;;;;;;;35.48;26.38;100438.52;107341;1278;61349;-80
2023/04/26 08:55:17;;;;;;;4.00;2.00;;;;;;;35.52;26.93;100439.95;107473;1279;60926;-80
2023/04/26 08:57:45;;;;;;;5.70;2.30;;;;;;;35.52;26.40;100435.55;106974;1279;74616;-80
2023/04/26 09:00:12;;;;;;;3.60;1.90;;;;;;;35.28;26.07;100436.63;107512;1279;74188;-80
2023/04/26 09:02:45;;;;;;;6.60;2.40;;;;;;;34.92;26.72;100436.81;107023;1280;73481;-79
2023/04/26 09:05:11;;;;;;;7.80;2.10;;;;;;;34.85;27.78;100432.14;107450;1279;59295;-81
2023/04/26 09:07:42;;;;;;;6.00;2.30;;;;;;;35.12;27.39;100427.77;107081;1278;59898;-79
2023/04/26 09:10:10;;;;;;;4.30;2.20;;;;;;;34.92;27.62;100426.08;107365;1279;73504;-80
2023/04/26 09:12:35;;;;;;;6.80;2.40;;;;;;;34.64;27.99;100421.67;107458;1279;73335;-78
2023/04/26 09:15:03;;;;;;;7.40;2.20;;;;;;;34.44;28.12;100419.78;107452;1279;59269;-80
2023/04/26 09:17:31;;;;;;;7.50;2.20;;;;;;;34.24;28.06;100421.58;107501;1278;60216;-79
2023/04/26 09:19:58;;;;;;;4.10;1.90;;;;;;;33.99;27.64;100420.00;107493;1279;58895;-80
2023/04/26 09:25:50;;;;;;;5.40;1.60;;;;;;;33.91;27.21;100409.01;106503;1287;73362;-80
2023/04/26 09:28:20;;;;;;;7.80;1.90;;;;;;;34.14;27.01;100403.85;106270;1288;59097;-80
2023/04/26 09:30:46;;;;;;;3.00;1.30;;;;;;;34.12;26.33;100408.91;106485;1288;60226;-81
2023/04/26 09:33:11;;;;;;;4.10;1.60;;;;;;;33.88;26.67;100407.39;106483;1287;59110;-80
2023/04/26 09:35:39;;;;;;;2.70;1.30;;;;;;;33.81;26.27;100406.86;106541;1287;59091;-80
2023/04/26 09:38:07;;;;;;;7.30;1.90;;;;;;;33.04;25.39;100407.67;106269;1288;59166;-81
2023/04/26 09:40:43;;;;;;;7.20;1.70;;;;;;;32.49;26.37;100406.79;106372;1288;72910;-81
2023/04/26 09:43:16;;;;;;;5.70;1.30;;;;;;;32.49;26.62;100402.16;106490;1287;60383;-81
2023/04/26 09:45:56;;;;;;;4.10;1.50;;;;;;;32.33;26.71;100398.40;106269;1287;60699;-83
2023/04/26 09:48:24;;;;;;;5.40;1.50;;;;;;;31.74;26.48;100393.95;106546;1287;75400;-82
2023/04/26 09:50:53;;;;;;;7.80;2.30;;;;;;;31.41;27.34;100399.33;106309;1288;73374;-82
2023/04/26 09:53:26;;;;;;;6.80;2.00;;;;;;;31.32;27.52;100395.80;106522;1287;73495;-82
2023/04/26 09:55:53;;;;;;;5.00;1.40;;;;;;;31.26;27.86;100397.73;106494;1288;59946;-82
2023/04/26 09:58:18;;;;;;;8.50;1.40;;;;;;;31.18;27.05;100397.54;106492;1287;59914;-82
2023/04/26 10:00:45;;;;;;;4.30;1.60;;;;;;;31.18;27.66;100399.99;106511;1287;59173;-83
2023/04/26 10:03:11;;;;;;;2.20;1.20;;;;;;;30.72;27.37;100398.49;107219;1279;59038;-83
2023/04/26 10:05:37;;;;;;;3.10;1.20;;;;;;;30.19;27.65;100398.58;107364;1279;59063;-82
2023/04/26 10:08:03;;;;;;;2.40;1.40;;;;;;;29.86;27.33;100398.18;107348;1279;59489;-83
2023/04/26 10:10:30;;;;;;;3.60;1.20;;;;;;;29.42;27.22;100392.05;107322;1279;59248;-83
2023/04/26 10:12:56;;;;;;;4.60;1.30;;;;;;;29.21;28.09;100397.56;107397;1279;59001;-83
2023/04/26 10:15:22;;;;;;;2.40;1.00;;;;;;;29.14;27.95;100398.34;107218;1279;59106;-82
2023/04/26 10:17:47;;;;;;;2.30;0.80;;;;;;;28.95;28.18;100393.23;107370;1279;59348;-82
2023/04/26 10:20:16;;;;;;;6.00;0.90;;;;;;;28.74;28.75;100393.06;107502;1280;59014;-82
2023/04/26 10:22:51;;;;;;;3.10;1.10;;;;;;;28.55;29.20;100397.48;107498;1279;75428;-82
2023/04/26 10:25:17;;;;;;;3.40;1.30;;;;;;;28.37;29.84;100391.80;107478;1279;74523;-82
2023/04/26 10:27:45;;;;;;;3.60;1.00;;;;;;;28.37;29.82;100396.08;107350;1279;59144;-81
2023/04/26 10:30:15;;;;;;;18.10;3.00;;;;;;;28.32;29.65;100396.34;107314;1279;61427;-80
2023/04/26 10:32:56;;;;;;;13.00;2.40;;;;;;;28.44;30.55;100398.58;107375;1279;60143;-81
2023/04/26 10:35:26;;;;;;;3.40;1.10;;;;;;;28.52;29.38;100396.98;107401;1279;75619;-81
2023/04/26 10:38:00;;;;;;;2.00;1.10;;;;;;;27.90;29.56;100391.02;107393;1279;73857;-81
2023/04/26 10:40:36;;;;;;;4.00;1.50;;;;;;;27.74;29.98;100387.48;107429;1278;72705;-80
2023/04/26 10:43:17;;;;;;;5.60;1.60;;;;;;;27.79;30.51;100391.41;107501;1278;60954;-79
2023/04/26 10:45:44;;;;;;;4.00;1.20;;;;;;;27.61;30.63;100391.77;107517;1278;60059;-79
2023/04/26 10:48:16;;;;;;;2.20;0.90;;;;;;;27.53;30.61;100392.08;107508;1279;74896;-79
2023/04/26 10:51:09;;;;;;;5.50;1.10;;;;;;;27.60;30.70;100389.70;107512;1279;74815;-79
2023/04/26 10:53:34;;;;;;;17.30;2.40;;;;;;;27.66;30.24;100389.68;106486;1288;72324;-79
2023/04/26 10:56:00;;;;;;;4.90;1.20;;;;;;;27.32;31.08;100382.46;106488;1288;59440;-80
2023/04/26 10:58:29;;;;;;;7.20;2.10;;;;;;;26.98;30.60;100380.39;106561;1287;59095;-79
2023/04/26 11:01:19;;;;;;;43.40;3.80;;;;;;;26.96;31.35;100378.30;106520;1287;75045;-79
2023/04/26 11:03:56;;;;;;;7.40;1.60;;;;;;;27.25;30.47;100377.70;105999;1293;74311;-79
2023/04/26 11:06:23;;;;;;;5.20;1.20;;;;;;;27.53;29.80;100375.23;106008;1293;71472;-79
2023/04/26 11:08:50;;;;;;;6.70;1.30;;;;;;;27.65;29.88;100376.46;105773;1294;60446;-79